createdAt,value
2022-12-27T00:01:29.685Z,2.50
2022-12-27T00:03:58.501Z,2.52
2022-12-27T00:06:28.819Z,2.55
2022-12-27T00:08:58.770Z,2.54
2022-12-27T00:11:31.565Z,2.54
2022-12-27T00:14:05.350Z,2.51
2022-12-27T00:16:34.800Z,2.51
2022-12-27T00:19:04.447Z,2.48
2022-12-27T00:21:34.061Z,2.50
2022-12-27T00:24:03.700Z,2.46
2022-12-27T00:26:35.848Z,2.33
2022-12-27T00:29:04.778Z,2.26
2022-12-27T00:31:34.369Z,2.34
2022-12-27T00:34:06.205Z,2.37
2022-12-27T00:36:35.671Z,2.45
2022-12-27T00:39:05.459Z,2.51
2022-12-27T00:41:34.365Z,2.48
2022-12-27T00:44:03.316Z,2.56
2022-12-27T00:46:35.270Z,2.60
2022-12-27T00:49:04.222Z,2.56
2022-12-27T00:51:33.009Z,2.55
2022-12-27T00:54:01.947Z,2.53
2022-12-27T00:56:31.573Z,2.57
2022-12-27T00:59:03.652Z,2.49
2022-12-27T01:01:36.409Z,2.51
2022-12-27T01:04:05.810Z,2.44
2022-12-27T01:06:36.027Z,2.47
2022-12-27T01:09:07.274Z,2.40
2022-12-27T01:11:36.039Z,2.40
2022-12-27T01:14:05.661Z,2.39
2022-12-27T01:16:35.112Z,2.46
2022-12-27T01:19:03.991Z,2.43
2022-12-27T01:21:32.703Z,2.41
2022-12-27T01:24:01.746Z,2.45
2022-12-27T01:26:30.530Z,2.56
2022-12-27T01:28:59.365Z,2.54
2022-12-27T01:31:28.585Z,2.60
2022-12-27T01:33:59.559Z,2.61
2022-12-27T01:36:31.924Z,2.64
2022-12-27T01:39:03.999Z,2.67
2022-12-27T01:41:54.917Z,2.66
2022-12-27T01:44:39.378Z,2.60
2022-12-27T01:47:32.483Z,2.63
2022-12-27T01:50:29.320Z,2.63
2022-12-27T01:53:33.070Z,2.53
2022-12-27T01:56:06.687Z,2.57
2022-12-27T01:59:03.137Z,2.58
2022-12-27T02:01:38.913Z,2.61
2022-12-27T02:04:12.809Z,2.67
2022-12-27T02:06:41.953Z,2.64
2022-12-27T02:09:28.686Z,2.67
2022-12-27T02:11:59.946Z,2.69
2022-12-27T02:14:38.251Z,2.68
2022-12-27T02:17:14.532Z,2.71
2022-12-27T02:19:43.292Z,2.70
2022-12-27T02:22:57.191Z,2.66
2022-12-27T02:26:09.197Z,2.66
2022-12-27T02:28:56.815Z,2.64
2022-12-27T02:31:36.085Z,2.59
2022-12-27T02:34:14.369Z,2.62
2022-12-27T02:36:45.523Z,2.66
2022-12-27T02:39:16.380Z,2.76
2022-12-27T02:42:04.719Z,2.80
2022-12-27T02:44:52.236Z,2.78
2022-12-27T02:47:43.330Z,2.63
2022-12-27T02:50:33.437Z,2.65
2022-12-27T02:53:22.382Z,2.69
2022-12-27T02:57:10.261Z,2.67
2022-12-27T03:00:36.191Z,2.68
2022-12-27T03:03:32.064Z,2.64
2022-12-27T03:06:53.074Z,2.64
2022-12-27T03:10:27.036Z,2.71
2022-12-27T03:13:31.927Z,2.73
2022-12-27T03:16:38.151Z,2.71
2022-12-27T03:19:38.267Z,2.65
2022-12-27T03:22:56.476Z,2.72
2022-12-27T03:25:28.769Z,2.68
2022-12-27T03:28:25.445Z,2.75
2022-12-27T03:31:43.604Z,2.78
2022-12-27T03:34:32.665Z,2.73
2022-12-27T03:37:31.991Z,2.84
2022-12-27T03:40:30.563Z,2.81
2022-12-27T03:43:15.391Z,2.81
2022-12-27T03:46:20.914Z,2.85
2022-12-27T03:49:33.489Z,2.89
2022-12-27T03:52:08.398Z,2.89
2022-12-27T03:54:41.274Z,2.89
2022-12-27T03:57:20.102Z,2.95
2022-12-27T03:59:49.300Z,3.01
2022-12-27T04:02:19.031Z,3.01
2022-12-27T04:04:48.742Z,3.06
2022-12-27T04:07:17.613Z,3.12
2022-12-27T04:10:05.118Z,3.14
2022-12-27T04:12:52.391Z,3.09
2022-12-27T04:15:39.702Z,3.09
2022-12-27T04:18:26.591Z,3.10
2022-12-27T04:21:13.947Z,3.15
2022-12-27T04:24:00.819Z,3.11
2022-12-27T04:26:48.161Z,3.13
2022-12-27T04:29:35.138Z,3.11
2022-12-27T04:32:23.128Z,3.03
2022-12-27T04:34:51.863Z,2.96
2022-12-27T04:37:20.859Z,3.00
2022-12-27T04:40:08.281Z,3.08
2022-12-27T04:42:55.846Z,3.19
2022-12-27T04:45:43.083Z,3.21
2022-12-27T04:48:34.883Z,3.23
2022-12-27T04:51:21.701Z,3.09
2022-12-27T04:54:08.778Z,3.17
2022-12-27T04:56:37.475Z,3.11
2022-12-27T04:59:24.434Z,3.10
2022-12-27T05:02:05.612Z,3.02
2022-12-27T05:04:38.332Z,2.92
2022-12-27T05:07:30.031Z,2.91
2022-12-27T05:10:20.029Z,2.89
2022-12-27T05:13:07.422Z,2.82
2022-12-27T05:15:36.302Z,2.75
2022-12-27T05:18:05.323Z,2.66
2022-12-27T05:20:35.451Z,2.61
2022-12-27T05:23:22.656Z,2.63
2022-12-27T05:25:51.314Z,2.65
2022-12-27T05:28:20.018Z,2.68
2022-12-27T05:30:48.856Z,2.75
2022-12-27T05:33:18.098Z,2.74
2022-12-27T05:35:46.920Z,2.73
2022-12-27T05:38:15.700Z,2.73
2022-12-27T05:40:44.522Z,2.74
2022-12-27T05:43:13.274Z,2.70
2022-12-27T05:45:42.180Z,2.71
2022-12-27T05:48:10.988Z,2.75
2022-12-27T05:50:39.680Z,2.69
2022-12-27T05:53:15.167Z,2.69
2022-12-27T05:55:44.005Z,2.68
2022-12-27T05:58:12.788Z,2.66
2022-12-27T06:00:41.487Z,2.68
2022-12-27T06:03:10.433Z,2.74
2022-12-27T06:05:39.263Z,2.68
2022-12-27T06:08:09.890Z,2.76
2022-12-27T06:10:38.874Z,2.70
2022-12-27T06:13:07.743Z,2.63
2022-12-27T06:15:37.651Z,2.67
2022-12-27T06:18:06.915Z,2.72
2022-12-27T06:20:35.961Z,2.80
2022-12-27T06:23:05.203Z,2.89
2022-12-27T06:25:34.390Z,2.96
2022-12-27T06:28:03.168Z,3.03
2022-12-27T06:30:36.117Z,3.10
2022-12-27T06:33:05.293Z,3.11
2022-12-27T06:35:34.092Z,3.19
2022-12-27T06:38:02.837Z,3.26
2022-12-27T06:40:31.615Z,3.31
2022-12-27T06:43:00.635Z,3.29
2022-12-27T06:45:29.337Z,3.31
2022-12-27T06:47:58.075Z,3.34
2022-12-27T06:50:27.039Z,3.42
2022-12-27T06:52:56.438Z,3.32
2022-12-27T06:55:25.286Z,3.24
2022-12-27T06:57:54.051Z,3.37
2022-12-27T07:00:22.949Z,3.37
2022-12-27T07:02:51.767Z,3.43
2022-12-27T07:05:20.645Z,3.41
2022-12-27T07:07:49.430Z,3.46
2022-12-27T07:10:18.702Z,3.43
2022-12-27T07:12:47.488Z,3.42
2022-12-27T07:15:16.305Z,3.45
2022-12-27T07:17:45.019Z,3.42
2022-12-27T07:20:13.960Z,3.21
2022-12-27T07:22:42.819Z,3.31
2022-12-27T07:25:11.649Z,3.25
2022-12-27T07:27:40.406Z,3.25
2022-12-27T07:30:10.255Z,3.35
2022-12-27T07:32:39.097Z,3.35
2022-12-27T07:35:08.310Z,3.39
2022-12-27T07:37:38.758Z,3.45
2022-12-27T07:40:08.518Z,3.41
2022-12-27T07:42:37.287Z,3.45
2022-12-27T07:45:06.997Z,3.40
2022-12-27T07:47:35.840Z,3.46
2022-12-27T07:50:06.565Z,3.58
2022-12-27T07:52:35.583Z,3.66
2022-12-27T07:55:04.929Z,3.67
2022-12-27T07:57:33.769Z,3.67
2022-12-27T08:00:03.893Z,3.79
2022-12-27T08:02:43.709Z,3.66
2022-12-27T08:05:14.226Z,3.72
2022-12-27T08:07:43.417Z,3.79
2022-12-27T08:10:13.353Z,3.87
2022-12-27T08:12:42.544Z,3.86
2022-12-27T08:15:12.840Z,3.85
2022-12-27T08:17:41.665Z,3.90
2022-12-27T08:20:14.905Z,3.89
2022-12-27T08:22:43.597Z,3.82
2022-12-27T08:25:12.394Z,3.82
2022-12-27T08:27:41.562Z,3.80
2022-12-27T08:30:11.284Z,3.80
2022-12-27T08:32:40.361Z,3.82
2022-12-27T08:35:41.925Z,3.84
2022-12-27T08:38:01.888Z,3.77
2022-12-27T08:40:31.092Z,3.67
2022-12-27T08:43:00.617Z,3.70
2022-12-27T08:45:29.698Z,3.70
2022-12-27T08:48:02.846Z,3.69
2022-12-27T08:50:32.332Z,3.59
2022-12-27T08:53:03.221Z,3.58
2022-12-27T08:55:33.291Z,3.62
2022-12-27T08:58:13.834Z,3.66
2022-12-27T09:00:44.468Z,3.72
2022-12-27T09:03:13.361Z,3.69
2022-12-27T09:05:42.468Z,3.68
2022-12-27T09:08:12.081Z,3.70
2022-12-27T09:10:40.896Z,3.80
2022-12-27T09:13:09.845Z,3.78
2022-12-27T09:15:39.650Z,3.80
2022-12-27T09:18:08.623Z,3.84
2022-12-27T09:20:38.260Z,3.91
2022-12-27T09:23:07.101Z,3.95
2022-12-27T09:25:36.266Z,4.01
2022-12-27T09:28:07.233Z,3.96
2022-12-27T09:30:38.585Z,4.01
2022-12-27T09:33:09.683Z,4.08
2022-12-27T09:35:40.619Z,4.15
2022-12-27T09:38:11.508Z,4.25
2022-12-27T09:40:40.523Z,4.45
2022-12-27T09:43:22.325Z,4.58
2022-12-27T09:45:57.182Z,4.81
2022-12-27T09:48:39.037Z,5.03
2022-12-27T09:51:29.611Z,5.16
2022-12-27T09:54:31.469Z,5.31
2022-12-27T09:57:19.432Z,5.46
2022-12-27T09:59:58.799Z,5.39
2022-12-27T10:02:29.667Z,5.50
2022-12-27T10:08:20.681Z,5.54
2022-12-27T10:11:38.854Z,5.65
2022-12-27T10:14:45.712Z,5.39
2022-12-27T10:18:10.995Z,5.42
2022-12-27T10:21:16.634Z,5.56
2022-12-27T10:23:54.849Z,5.69
2022-12-27T10:26:25.118Z,5.59
2022-12-27T10:29:14.258Z,5.58
2022-12-27T10:31:45.284Z,5.67
2022-12-27T10:34:17.319Z,5.83
2022-12-27T10:36:46.254Z,6.02
2022-12-27T10:39:20.313Z,6.13
2022-12-27T10:42:32.177Z,6.33
2022-12-27T10:45:37.145Z,6.76
2022-12-27T10:48:36.397Z,6.98
2022-12-27T10:51:15.680Z,7.39
2022-12-27T10:53:47.466Z,7.22
2022-12-27T10:56:39.177Z,7.29
2022-12-27T10:59:13.348Z,7.55
2022-12-27T11:01:42.646Z,7.44
2022-12-27T11:04:21.949Z,7.55
2022-12-27T11:07:12.383Z,7.85
2022-12-27T11:09:50.707Z,8.04
2022-12-27T11:12:26.061Z,7.95
2022-12-27T11:15:11.218Z,8.47
2022-12-27T11:18:00.714Z,8.76
2022-12-27T11:20:32.716Z,8.87
2022-12-27T11:23:24.744Z,8.59
2022-12-27T11:26:03.170Z,8.33
2022-12-27T11:28:40.307Z,8.23
2022-12-27T11:31:16.807Z,8.19
2022-12-27T11:33:53.268Z,8.35
2022-12-27T11:36:34.590Z,8.40
2022-12-27T11:39:05.154Z,8.13
2022-12-27T11:41:55.986Z,8.14
2022-12-27T11:44:32.898Z,7.92
2022-12-27T11:48:08.126Z,7.73
2022-12-27T11:51:01.796Z,7.39
2022-12-27T11:54:07.012Z,7.35
2022-12-27T11:56:41.997Z,7.33
2022-12-27T11:59:58.060Z,7.32
2022-12-27T12:02:52.638Z,7.17
2022-12-27T12:05:47.701Z,7.32
2022-12-27T12:08:54.529Z,7.44
2022-12-27T12:11:42.612Z,7.89
2022-12-27T12:15:07.950Z,8.38
2022-12-27T12:18:04.098Z,8.90
2022-12-27T12:20:40.915Z,9.23
2022-12-27T12:23:21.902Z,9.38
2022-12-27T12:26:16.740Z,9.54
2022-12-27T12:29:29.805Z,9.40
2022-12-27T12:32:25.341Z,9.43
2022-12-27T12:35:16.300Z,9.33
2022-12-27T12:37:53.838Z,9.00
2022-12-27T12:40:33.124Z,9.06
2022-12-27T12:43:46.178Z,8.95
2022-12-27T12:46:56.307Z,8.90
2022-12-27T12:49:54.819Z,8.86
2022-12-27T12:52:35.554Z,8.48
2022-12-27T12:55:40.247Z,8.30
2022-12-27T12:58:43.188Z,8.13
2022-12-27T13:01:50.645Z,8.00
2022-12-27T13:04:41.074Z,7.99
2022-12-27T13:07:12.492Z,8.09
2022-12-27T13:09:53.219Z,8.01
2022-12-27T13:12:24.677Z,8.18
2022-12-27T13:15:38.950Z,8.23
2022-12-27T13:18:43.689Z,8.26
2022-12-27T13:21:59.731Z,8.23
2022-12-27T13:25:08.619Z,8.21
2022-12-27T13:28:23.952Z,8.20
2022-12-27T13:31:28.357Z,7.99
2022-12-27T13:34:37.439Z,7.87
2022-12-27T13:37:25.769Z,7.74
2022-12-27T13:40:24.814Z,7.75
2022-12-27T13:43:25.845Z,7.77
2022-12-27T13:46:57.537Z,7.70
2022-12-27T13:50:06.634Z,7.45
2022-12-27T13:52:47.339Z,7.35
2022-12-27T13:55:35.085Z,7.21
2022-12-27T13:58:28.142Z,7.13
2022-12-27T14:01:23.752Z,7.08
2022-12-27T14:04:24.301Z,7.02
2022-12-27T14:07:34.555Z,6.93
2022-12-27T14:10:22.704Z,6.86
2022-12-27T14:13:08.974Z,6.82
2022-12-27T14:16:08.814Z,6.77
2022-12-27T14:19:03.400Z,6.76
2022-12-27T14:22:28.231Z,6.83
2022-12-27T14:25:43.147Z,6.85
2022-12-27T14:28:42.068Z,6.85
2022-12-27T14:31:54.586Z,6.87
2022-12-27T14:35:07.038Z,6.88
2022-12-27T14:38:21.385Z,6.85
2022-12-27T14:41:19.248Z,6.85
2022-12-27T14:44:25.194Z,6.85
2022-12-27T14:47:54.984Z,6.83
2022-12-27T14:50:45.889Z,6.82
2022-12-27T14:54:08.143Z,6.80
2022-12-27T14:56:57.586Z,6.80
2022-12-27T14:59:50.336Z,6.82
2022-12-27T15:02:58.624Z,6.84
2022-12-27T15:06:01.428Z,6.81
2022-12-27T15:08:50.851Z,6.77
2022-12-27T15:11:48.119Z,6.77
2022-12-27T15:15:04.589Z,6.76
2022-12-27T15:18:26.701Z,6.79
2022-12-27T15:21:42.138Z,6.77
2022-12-27T15:24:36.933Z,6.78
2022-12-27T15:27:20.088Z,6.82
2022-12-27T15:30:04.355Z,6.81
2022-12-27T15:32:36.583Z,6.82
2022-12-27T15:35:45.189Z,6.81
2022-12-27T15:38:35.769Z,6.76
2022-12-27T15:41:37.349Z,6.75
2022-12-27T15:44:55.938Z,6.73
2022-12-27T15:48:21.084Z,6.73
2022-12-27T15:51:43.662Z,6.70
2022-12-27T15:54:53.642Z,6.64
2022-12-27T15:57:52.022Z,6.56
2022-12-27T16:00:24.611Z,6.51
2022-12-27T16:02:59.860Z,6.42
2022-12-27T16:05:45.655Z,6.45
2022-12-27T16:08:32.453Z,6.35
2022-12-27T16:11:05.617Z,6.29
2022-12-27T16:13:42.786Z,6.27
2022-12-27T16:16:38.856Z,6.20
2022-12-27T16:19:45.811Z,6.13
2022-12-27T16:22:40.184Z,6.09
2022-12-27T16:25:42.626Z,5.96
2022-12-27T16:28:28.103Z,5.97
2022-12-27T16:31:02.876Z,5.94
2022-12-27T16:33:42.581Z,5.91
2022-12-27T16:36:47.828Z,5.84
2022-12-27T16:39:47.409Z,5.74
2022-12-27T16:42:22.184Z,5.75
2022-12-27T16:45:43.749Z,5.71
2022-12-27T16:49:02.200Z,5.68
2022-12-27T16:52:17.402Z,5.65
2022-12-27T16:54:58.149Z,5.63
2022-12-27T16:57:26.961Z,5.56
2022-12-27T17:00:58.337Z,5.49
2022-12-27T17:03:36.103Z,5.44
2022-12-27T17:06:31.706Z,5.46
2022-12-27T17:09:10.609Z,5.41
2022-12-27T17:11:51.843Z,5.43
2022-12-27T17:14:44.359Z,5.44
2022-12-27T17:17:21.276Z,5.41
2022-12-27T17:20:06.668Z,5.41
2022-12-27T17:22:39.591Z,5.36
2022-12-27T17:25:18.304Z,5.31
2022-12-27T17:28:24.046Z,5.28
2022-12-27T17:31:07.453Z,5.25
2022-12-27T17:34:28.453Z,5.23
2022-12-27T17:37:28.290Z,5.22
2022-12-27T17:41:02.482Z,5.15
2022-12-27T17:44:21.019Z,5.06
2022-12-27T17:46:57.760Z,4.96
2022-12-27T17:49:31.308Z,4.99
2022-12-27T17:52:20.557Z,5.00
2022-12-27T17:55:07.840Z,4.99
2022-12-27T17:57:54.879Z,4.96
2022-12-27T18:01:02.634Z,4.91
2022-12-27T18:03:45.050Z,4.91
2022-12-27T18:06:20.117Z,4.85
2022-12-27T18:08:51.131Z,4.78
2022-12-27T18:11:27.800Z,4.71
2022-12-27T18:14:00.772Z,4.71
2022-12-27T18:16:40.786Z,4.70
2022-12-27T18:19:19.941Z,4.69
2022-12-27T18:22:03.539Z,4.70
2022-12-27T18:24:34.012Z,4.67
2022-12-27T18:27:21.209Z,4.63
2022-12-27T18:29:50.432Z,4.61
2022-12-27T18:32:19.683Z,4.60
2022-12-27T18:35:00.798Z,4.55
2022-12-27T18:37:29.698Z,4.51
2022-12-27T18:40:02.739Z,4.53
2022-12-27T18:42:43.025Z,4.50
2022-12-27T18:45:33.579Z,4.50
2022-12-27T18:48:09.371Z,4.49
2022-12-27T18:50:48.274Z,4.47
2022-12-27T18:53:38.683Z,4.44
2022-12-27T18:56:16.620Z,4.42
2022-12-27T18:59:16.953Z,4.37
2022-12-27T19:01:48.333Z,4.34
2022-12-27T19:04:20.763Z,4.37
2022-12-27T19:07:09.929Z,4.38
2022-12-27T19:09:48.668Z,4.40
2022-12-27T19:12:35.171Z,4.37
2022-12-27T19:15:14.734Z,4.34
2022-12-27T19:17:47.980Z,4.34
2022-12-27T19:20:29.215Z,4.33
2022-12-27T19:23:02.069Z,4.31
2022-12-27T19:25:37.064Z,4.31
2022-12-27T19:28:26.511Z,4.31
2022-12-27T19:31:18.624Z,4.33
2022-12-27T19:33:56.148Z,4.31
2022-12-27T19:36:40.213Z,4.29
2022-12-27T19:39:29.784Z,4.26
2022-12-27T19:42:01.960Z,4.26
2022-12-27T19:44:32.726Z,4.24
2022-12-27T19:47:01.627Z,4.28
2022-12-27T19:49:42.554Z,4.29
2022-12-27T19:52:21.626Z,4.28
2022-12-27T19:54:57.025Z,4.24
2022-12-27T19:57:25.740Z,4.18
2022-12-27T19:59:55.189Z,4.18
2022-12-27T20:02:24.875Z,4.16
2022-12-27T20:04:54.546Z,4.13
2022-12-27T20:07:25.711Z,4.12
2022-12-27T20:09:54.975Z,4.13
2022-12-27T20:12:24.387Z,4.14
2022-12-27T20:14:53.789Z,4.09
2022-12-27T20:17:22.628Z,4.13
2022-12-27T20:19:51.988Z,4.12
2022-12-27T20:22:20.874Z,4.12
2022-12-27T20:24:49.662Z,4.04
2022-12-27T20:27:23.976Z,4.03
2022-12-27T20:29:52.868Z,4.04
2022-12-27T20:32:21.722Z,3.99
2022-12-27T20:34:50.483Z,3.99
2022-12-27T20:37:24.273Z,4.07
2022-12-27T20:39:53.538Z,4.07
2022-12-27T20:42:24.627Z,4.00
2022-12-27T20:44:53.689Z,3.96
2022-12-27T20:47:22.755Z,3.96
2022-12-27T20:49:51.996Z,3.90
2022-12-27T20:52:24.409Z,3.89
2022-12-27T20:54:57.704Z,3.87
2022-12-27T20:57:26.739Z,3.83
2022-12-27T20:59:55.500Z,3.76
2022-12-27T21:02:24.391Z,3.69
2022-12-27T21:04:53.838Z,3.61
2022-12-27T21:07:22.726Z,3.62
2022-12-27T21:09:51.561Z,3.58
2022-12-27T21:12:20.300Z,3.53
2022-12-27T21:14:50.295Z,3.46
2022-12-27T21:17:18.985Z,3.41
2022-12-27T21:19:47.702Z,3.36
2022-12-27T21:22:16.715Z,3.28
2022-12-27T21:24:45.390Z,3.20
2022-12-27T21:27:14.192Z,3.15
2022-12-27T21:29:43.029Z,3.00
2022-12-27T21:32:11.778Z,2.91
2022-12-27T21:34:41.473Z,2.88
2022-12-27T21:37:13.434Z,2.83
2022-12-27T21:39:42.513Z,2.69
2022-12-27T21:42:12.572Z,2.62
2022-12-27T21:44:41.328Z,2.54
2022-12-27T21:47:10.103Z,2.42
2022-12-27T21:49:40.657Z,2.35
2022-12-27T21:52:09.547Z,2.27
2022-12-27T21:54:38.421Z,2.24
2022-12-27T21:57:07.157Z,2.16
2022-12-27T21:59:35.876Z,2.08
2022-12-27T22:02:04.695Z,2.03
2022-12-27T22:04:33.560Z,2.00
2022-12-27T22:07:02.423Z,1.95
2022-12-27T22:09:31.227Z,1.89
2022-12-27T22:12:00.110Z,1.85
2022-12-27T22:14:33.273Z,1.82
2022-12-27T22:17:06.024Z,1.77
2022-12-27T22:19:34.741Z,1.74
2022-12-27T22:22:03.470Z,1.68
2022-12-27T22:24:32.423Z,1.66
2022-12-27T22:27:01.222Z,1.61
2022-12-27T22:29:34.968Z,1.55
2022-12-27T22:32:04.385Z,1.49
2022-12-27T22:34:33.125Z,1.44
2022-12-27T22:37:01.993Z,1.41
2022-12-27T22:39:31.142Z,1.38
2022-12-27T22:41:59.917Z,1.31
2022-12-27T22:44:29.266Z,1.26
2022-12-27T22:47:26.338Z,1.22
2022-12-27T22:49:49.673Z,1.15
2022-12-27T22:52:18.424Z,1.09
2022-12-27T22:55:04.199Z,1.05
2022-12-27T22:57:35.078Z,1.03
2022-12-27T23:00:07.047Z,1.00
2022-12-27T23:02:37.109Z,0.96
2022-12-27T23:05:06.921Z,0.94
2022-12-27T23:08:04.644Z,0.90
2022-12-27T23:10:24.512Z,0.89
2022-12-27T23:12:53.416Z,0.88
2022-12-27T23:15:22.228Z,0.86
2022-12-27T23:17:52.542Z,0.82
2022-12-27T23:20:21.331Z,0.79
2022-12-27T23:22:50.090Z,0.78
2022-12-27T23:25:18.861Z,0.85
2022-12-27T23:27:47.597Z,0.92
2022-12-27T23:30:16.726Z,1.04
2022-12-27T23:32:45.439Z,1.11
2022-12-27T23:35:14.468Z,1.18
2022-12-27T23:37:43.212Z,1.23
2022-12-27T23:40:12.672Z,1.30
2022-12-27T23:42:41.384Z,1.46
2022-12-27T23:45:10.843Z,1.56
2022-12-27T23:47:39.674Z,1.61
2022-12-27T23:50:14.533Z,1.72
2022-12-27T23:52:47.848Z,1.75
2022-12-27T23:55:16.840Z,1.80
2022-12-27T23:57:45.776Z,1.84
